Weather at Yuzhniy Heliport

Public forecast

Using degrees Celsius for public forecast. Weather courtesy of forecast.io.

Closest aviation weather report (METAR) to Yuzhniy Heliport

Closest report is Anapa Vityazevo Airport, 166.1 nm (307.5 km) E.

2024/07/19 08:30 (retrieved 27 minutes ago)

URKA 190830Z 06006MPS CAVOK 37/15 Q1008 R03/010070 NOSIG RMK QFE752/1002

Closest aviation forecast (TAF) to Yuzhniy Heliport

Closest forecast is Anapa Vityazevo Airport, 166.1 nm (307.5 km) E.

2024/07/19 09:21 (retrieved 0 seconds ago)

TAF TAF URKA 190757Z 1909/2009 05003G08MPS CAVOK TEMPO 1909/1911 01006G13MPS BECMG 1911/1912 01006G13MPS TEMPO 1912/1918 32003G08MPS FM191800 05003G08MPS 9999 SCT040CB TEMPO 2005/2009 01007G14MPS